Time;durP1;ratioP1;P1;durP2;ratioP2;P2;SDS_P1;SDS_P2;PMS_P1;PMS_P2;Temp;Humidity;BMP_temperature;BMP_pressure;BME280_temperature;BME280_humidity;BME280_pressure;Samples;Min_cycle;Max_cycle;Signal;HPM_P1;HPM_P2
2023/09/11 00:01:00;;;;;;;37.38;23.73;;;;;;;;;;5007808;28;20507;-73
2023/09/11 00:03:26;;;;;;;35.70;23.95;;;;;;;;;;5010220;28;20025;-74
2023/09/11 00:05:52;;;;;;;35.47;23.70;;;;;;;;;;5010232;28;20039;-73
2023/09/11 00:08:18;;;;;;;33.17;23.50;;;;;;;;;;5010646;28;20018;-74
2023/09/11 00:10:44;;;;;;;40.33;24.77;;;;;;;;;;5009604;28;20033;-74
2023/09/11 00:13:10;;;;;;;41.50;26.13;;;;;;;;;;5010359;28;20032;-74
2023/09/11 00:15:36;;;;;;;38.08;26.75;;;;;;;;;;5010532;28;20084;-73
2023/09/11 00:18:02;;;;;;;37.33;26.73;;;;;;;;;;5010587;28;20476;-73
2023/09/11 00:20:28;;;;;;;35.95;25.35;;;;;;;;;;5010389;28;20030;-72
2023/09/11 00:22:54;;;;;;;43.35;27.17;;;;;;;;;;5010182;28;20485;-74
2023/09/11 00:25:20;;;;;;;37.00;26.45;;;;;;;;;;5011565;28;20076;-74
2023/09/11 00:27:46;;;;;;;34.38;24.35;;;;;;;;;;5012154;28;20041;-75
2023/09/11 00:30:12;;;;;;;32.35;22.85;;;;;;;;;;5013303;28;20029;-73
2023/09/11 00:32:38;;;;;;;33.03;22.92;;;;;;;;;;5012254;28;20026;-73
2023/09/11 00:35:04;;;;;;;33.70;23.60;;;;;;;;;;5011126;28;20037;-73
2023/09/11 00:37:30;;;;;;;35.25;24.10;;;;;;;;;;5011300;28;20022;-72
2023/09/11 00:39:56;;;;;;;33.50;22.77;;;;;;;;;;5013842;28;20393;-73
2023/09/11 00:42:22;;;;;;;38.22;24.83;;;;;;;;;;5013927;28;20179;-73
2023/09/11 00:44:48;;;;;;;38.47;25.33;;;;;;;;;;5013515;28;20030;-73
2023/09/11 00:47:14;;;;;;;37.08;26.27;;;;;;;;;;5013966;28;20038;-73
2023/09/11 00:49:40;;;;;;;39.65;27.58;;;;;;;;;;5013561;28;20022;-74
2023/09/11 00:52:06;;;;;;;37.60;28.02;;;;;;;;;;5013529;28;20176;-72
2023/09/11 00:54:32;;;;;;;45.05;28.63;;;;;;;;;;5013284;28;20447;-73
2023/09/11 00:56:59;;;;;;;45.17;28.70;;;;;;;;;;5014375;28;20076;-72
2023/09/11 00:59:25;;;;;;;45.00;29.65;;;;;;;;;;5017372;28;20080;-74
2023/09/11 01:01:52;;;;;;;44.03;28.77;;;;;;;;;;5018932;28;20025;-74
2023/09/11 01:04:18;;;;;;;55.97;31.60;;;;;;;;;;5020941;28;20388;-74
2023/09/11 01:06:46;;;;;;;48.88;32.33;;;;;;;;;;5017813;28;20034;-75
2023/09/11 01:09:12;;;;;;;48.50;32.42;;;;;;;;;;5018184;28;20025;-75
2023/09/11 01:11:38;;;;;;;45.67;30.77;;;;;;;;;;5017625;28;20033;-74
2023/09/11 01:14:04;;;;;;;46.13;31.02;;;;;;;;;;5016306;28;20041;-74
2023/09/11 01:16:35;;;;;;;50.28;31.15;;;;;;;;;;5016022;28;20034;-74
2023/09/11 01:19:05;;;;;;;47.33;31.38;;;;;;;;;;5016852;28;20425;-74
2023/09/11 01:21:44;;;;;;;49.03;31.50;;;;;;;;;;5016916;28;20041;-73
2023/09/11 01:24:29;;;;;;;49.65;31.83;;;;;;;;;;5016515;28;20041;-74
2023/09/11 01:27:00;;;;;;;49.20;31.85;;;;;;;;;;5017362;28;20030;-75
2023/09/11 01:29:27;;;;;;;47.72;32.75;;;;;;;;;;5018458;28;20596;-73
2023/09/11 01:31:54;;;;;;;49.88;31.85;;;;;;;;;;5018311;28;20028;-73
2023/09/11 01:34:20;;;;;;;52.05;32.33;;;;;;;;;;5017878;28;20034;-73
2023/09/11 01:36:46;;;;;;;51.20;33.42;;;;;;;;;;5019254;28;20037;-74
2023/09/11 01:39:13;;;;;;;47.38;31.00;;;;;;;;;;5016686;28;20054;-73
2023/09/11 01:41:41;;;;;;;45.08;29.73;;;;;;;;;;5013834;28;20037;-73
2023/09/11 01:44:27;;;;;;;49.78;30.88;;;;;;;;;;5013696;28;20029;-73
2023/09/11 01:46:54;;;;;;;43.97;29.80;;;;;;;;;;5013561;28;20029;-73
2023/09/11 01:49:21;;;;;;;47.65;29.42;;;;;;;;;;5013225;28;20026;-74
2023/09/11 01:51:47;;;;;;;40.95;27.85;;;;;;;;;;5013594;28;20033;-74
2023/09/11 01:54:14;;;;;;;43.63;29.10;;;;;;;;;;5013309;28;20473;-75
2023/09/11 01:56:40;;;;;;;44.53;29.13;;;;;;;;;;5013690;28;20112;-74
2023/09/11 01:59:06;;;;;;;43.17;29.67;;;;;;;;;;5012593;28;20513;-74
2023/09/11 02:01:32;;;;;;;42.60;28.88;;;;;;;;;;5012251;28;20044;-74
2023/09/11 02:03:58;;;;;;;48.33;32.58;;;;;;;;;;5013107;28;20481;-74
2023/09/11 02:06:24;;;;;;;51.10;32.22;;;;;;;;;;5013350;28;20030;-74
2023/09/11 02:08:50;;;;;;;42.35;29.77;;;;;;;;;;5013725;28;20599;-74
2023/09/11 02:11:16;;;;;;;46.60;30.90;;;;;;;;;;5013639;28;20049;-72
2023/09/11 02:13:42;;;;;;;49.63;31.42;;;;;;;;;;5013241;28;20026;-74
2023/09/11 02:16:08;;;;;;;51.70;32.30;;;;;;;;;;5013489;28;20025;-74
2023/09/11 02:18:34;;;;;;;49.03;32.20;;;;;;;;;;5013395;28;20557;-74
2023/09/11 02:21:00;;;;;;;48.53;31.48;;;;;;;;;;5012970;28;20032;-73
2023/09/11 02:23:26;;;;;;;49.78;30.63;;;;;;;;;;5013111;28;20108;-73
2023/09/11 02:25:53;;;;;;;48.03;30.17;;;;;;;;;;5013223;28;20104;-74
2023/09/11 02:28:19;;;;;;;50.72;32.92;;;;;;;;;;5013430;28;20030;-74
2023/09/11 02:30:45;;;;;;;49.35;29.85;;;;;;;;;;5012973;28;20049;-73
2023/09/11 02:33:11;;;;;;;47.97;31.80;;;;;;;;;;5012516;28;20022;-73
2023/09/11 02:35:37;;;;;;;51.97;32.05;;;;;;;;;;5012718;28;20121;-74
2023/09/11 02:38:03;;;;;;;53.67;32.20;;;;;;;;;;5013192;28;20030;-73
2023/09/11 02:40:29;;;;;;;45.60;29.75;;;;;;;;;;5013313;28;20429;-73
2023/09/11 02:42:55;;;;;;;48.67;32.25;;;;;;;;;;5013028;28;20028;-74
2023/09/11 02:45:21;;;;;;;48.22;30.98;;;;;;;;;;5016899;28;20381;-72
2023/09/11 02:47:47;;;;;;;47.33;31.17;;;;;;;;;;5014219;28;20021;-72
2023/09/11 02:50:13;;;;;;;56.03;33.70;;;;;;;;;;5012499;28;20436;-72
2023/09/11 02:52:40;;;;;;;51.10;32.08;;;;;;;;;;5012467;28;20481;-73
2023/09/11 02:55:06;;;;;;;53.55;35.22;;;;;;;;;;5012546;28;20037;-74
2023/09/11 02:57:32;;;;;;;48.97;32.17;;;;;;;;;;5012760;28;20033;-72
2023/09/11 03:00:00;;;;;;;52.72;34.05;;;;;;;;;;5018126;28;20128;-72
2023/09/11 03:02:27;;;;;;;56.38;34.20;;;;;;;;;;5032308;28;20297;-73
2023/09/11 03:04:53;;;;;;;56.45;35.25;;;;;;;;;;5033862;28;20037;-71
2023/09/11 03:07:20;;;;;;;55.28;34.22;;;;;;;;;;5031525;28;20029;-71
2023/09/11 03:09:46;;;;;;;50.00;32.15;;;;;;;;;;5032700;28;20023;-72
2023/09/11 03:12:12;;;;;;;52.35;33.60;;;;;;;;;;5032829;28;20100;-71
2023/09/11 03:14:39;;;;;;;55.40;33.90;;;;;;;;;;5032428;28;20460;-73
2023/09/11 03:17:05;;;;;;;54.00;34.20;;;;;;;;;;5033108;28;20455;-72
2023/09/11 03:19:35;;;;;;;60.25;37.55;;;;;;;;;;5032884;28;20055;-73
2023/09/11 03:22:01;;;;;;;60.88;36.80;;;;;;;;;;5035175;28;20025;-76
2023/09/11 03:24:27;;;;;;;53.55;33.92;;;;;;;;;;5032840;28;20440;-73
2023/09/11 03:26:53;;;;;;;55.28;35.20;;;;;;;;;;5031836;28;20024;-72
2023/09/11 03:29:19;;;;;;;59.50;35.33;;;;;;;;;;5031379;28;20022;-72
2023/09/11 03:31:45;;;;;;;53.83;34.53;;;;;;;;;;5031215;28;20066;-72
2023/09/11 03:34:11;;;;;;;56.78;35.40;;;;;;;;;;5031309;28;20056;-72
2023/09/11 03:36:37;;;;;;;55.03;35.20;;;;;;;;;;5031476;28;20044;-72
2023/09/11 03:39:03;;;;;;;54.53;35.08;;;;;;;;;;5031652;28;20030;-72
2023/09/11 03:41:29;;;;;;;53.40;33.75;;;;;;;;;;5031371;28;20441;-73
2023/09/11 03:43:55;;;;;;;54.85;34.55;;;;;;;;;;5033770;28;20060;-73
2023/09/11 03:46:21;;;;;;;52.75;34.60;;;;;;;;;;5034070;28;20052;-72
2023/09/11 03:48:47;;;;;;;58.15;34.90;;;;;;;;;;5036581;28;20101;-71
2023/09/11 03:51:13;;;;;;;53.25;34.45;;;;;;;;;;5036196;28;20058;-73
2023/09/11 03:53:42;;;;;;;56.95;34.85;;;;;;;;;;5031850;28;20101;-73
2023/09/11 03:56:12;;;;;;;64.63;37.85;;;;;;;;;;5031755;28;20025;-70
2023/09/11 03:58:38;;;;;;;63.00;36.72;;;;;;;;;;5031506;28;20105;-71
2023/09/11 04:01:04;;;;;;;55.75;36.47;;;;;;;;;;5030688;28;20298;-71
2023/09/11 04:03:30;;;;;;;61.33;37.00;;;;;;;;;;5030276;28;20053;-72
2023/09/11 04:05:56;;;;;;;63.45;39.03;;;;;;;;;;5030682;28;20021;-70
2023/09/11 04:08:22;;;;;;;66.93;40.45;;;;;;;;;;5031123;28;20053;-71
2023/09/11 04:10:48;;;;;;;67.30;40.30;;;;;;;;;;5031050;28;20052;-72
2023/09/11 04:13:14;;;;;;;58.55;37.65;;;;;;;;;;5039624;28;20477;-72
2023/09/11 04:15:40;;;;;;;61.90;38.65;;;;;;;;;;5046821;28;20051;-72
2023/09/11 04:18:08;;;;;;;72.20;40.45;;;;;;;;;;5043330;28;20024;-72
2023/09/11 04:20:34;;;;;;;73.53;43.45;;;;;;;;;;5041168;28;20034;-73
2023/09/11 04:23:03;;;;;;;64.90;42.30;;;;;;;;;;5040157;28;20414;-72
2023/09/11 04:25:30;;;;;;;66.75;41.22;;;;;;;;;;5034262;28;20021;-72
2023/09/11 04:27:56;;;;;;;66.50;39.88;;;;;;;;;;5034082;28;20479;-72
2023/09/11 04:30:23;;;;;;;64.43;39.67;;;;;;;;;;5035316;28;20021;-73
2023/09/11 04:32:49;;;;;;;65.63;39.83;;;;;;;;;;5044751;28;20032;-72
2023/09/11 04:35:15;;;;;;;64.47;39.35;;;;;;;;;;5034925;28;20029;-73
2023/09/11 04:37:41;;;;;;;64.15;38.20;;;;;;;;;;5034124;28;20481;-74
2023/09/11 04:40:07;;;;;;;62.95;38.10;;;;;;;;;;5034075;28;20212;-74
2023/09/11 04:42:33;;;;;;;67.90;41.28;;;;;;;;;;5020987;28;20062;-75
2023/09/11 04:44:59;;;;;;;62.25;38.30;;;;;;;;;;5013646;28;20030;-75
2023/09/11 04:47:31;;;;;;;65.03;38.92;;;;;;;;;;5012349;28;20064;-76
2023/09/11 04:49:57;;;;;;;60.65;37.80;;;;;;;;;;5012795;28;20137;-76
2023/09/11 04:52:23;;;;;;;61.75;39.33;;;;;;;;;;5010513;28;20060;-75
2023/09/11 04:54:49;;;;;;;64.40;40.13;;;;;;;;;;5015416;28;20022;-74
2023/09/11 04:57:16;;;;;;;62.30;37.67;;;;;;;;;;5013243;28;20026;-72
2023/09/11 04:59:42;;;;;;;60.10;38.00;;;;;;;;;;5016070;28;20030;-73
2023/09/11 05:02:11;;;;;;;65.93;40.65;;;;;;;;;;5016673;28;20030;-73
2023/09/11 05:04:37;;;;;;;58.47;35.78;;;;;;;;;;5016077;28;20040;-72
2023/09/11 05:07:03;;;;;;;52.25;34.55;;;;;;;;;;5017571;28;20112;-74
2023/09/11 05:09:31;;;;;;;54.30;34.03;;;;;;;;;;5016303;28;20076;-73
2023/09/11 05:11:57;;;;;;;54.65;34.60;;;;;;;;;;5014868;28;20022;-73
2023/09/11 05:14:23;;;;;;;66.82;37.28;;;;;;;;;;5014553;28;20022;-74
2023/09/11 05:16:49;;;;;;;61.92;36.47;;;;;;;;;;5014525;28;20393;-74
2023/09/11 05:19:15;;;;;;;65.80;38.13;;;;;;;;;;5017792;28;20042;-74
2023/09/11 05:21:42;;;;;;;61.50;36.90;;;;;;;;;;5017050;28;20500;-75
2023/09/11 05:24:08;;;;;;;65.68;37.65;;;;;;;;;;5012548;28;20393;-74
2023/09/11 05:26:34;;;;;;;59.80;36.17;;;;;;;;;;5016468;28;20038;-74
2023/09/11 05:29:00;;;;;;;60.47;36.95;;;;;;;;;;5014312;28;20033;-75
2023/09/11 05:31:26;;;;;;;66.68;37.92;;;;;;;;;;5015211;28;20381;-72
2023/09/11 05:33:52;;;;;;;67.75;39.20;;;;;;;;;;5015105;28;20026;-73
2023/09/11 05:36:18;;;;;;;66.28;39.35;;;;;;;;;;5014107;28;20045;-76
2023/09/11 05:38:44;;;;;;;65.10;38.67;;;;;;;;;;5009107;28;20485;-73
2023/09/11 05:41:10;;;;;;;60.13;37.63;;;;;;;;;;5015346;28;20037;-75
2023/09/11 05:43:37;;;;;;;61.53;37.65;;;;;;;;;;5014821;28;20034;-73
2023/09/11 05:46:03;;;;;;;67.22;40.28;;;;;;;;;;5011962;28;20038;-74
2023/09/11 05:48:29;;;;;;;68.00;40.63;;;;;;;;;;5012416;28;20034;-72
2023/09/11 05:50:54;;;;;;;74.80;41.97;;;;;;;;;;5013685;28;20022;-74
2023/09/11 05:53:20;;;;;;;79.13;43.15;;;;;;;;;;5012591;28;20386;-73
2023/09/11 05:55:46;;;;;;;81.85;44.22;;;;;;;;;;5013137;28;20034;-75
2023/09/11 05:58:12;;;;;;;67.32;42.28;;;;;;;;;;5011821;28;20562;-76
2023/09/11 06:00:38;;;;;;;72.55;45.20;;;;;;;;;;5012987;28;20121;-74
2023/09/11 06:03:04;;;;;;;72.50;43.88;;;;;;;;;;5012562;28;20057;-75
2023/09/11 06:05:31;;;;;;;68.15;43.28;;;;;;;;;;5003988;28;20120;-74
2023/09/11 06:07:57;;;;;;;71.03;42.88;;;;;;;;;;5013375;28;20022;-74
2023/09/11 06:10:23;;;;;;;69.85;42.30;;;;;;;;;;5011724;28;20034;-76
2023/09/11 06:12:49;;;;;;;69.65;43.13;;;;;;;;;;5014952;28;20022;-73
2023/09/11 06:15:15;;;;;;;77.90;42.58;;;;;;;;;;5014201;28;20359;-78
2023/09/11 06:17:41;;;;;;;80.70;44.10;;;;;;;;;;5014010;28;20440;-72
2023/09/11 06:20:09;;;;;;;72.60;42.53;;;;;;;;;;5013659;28;20101;-73
2023/09/11 06:22:35;;;;;;;68.65;42.92;;;;;;;;;;5013404;28;20030;-73
2023/09/11 06:25:02;;;;;;;70.38;41.33;;;;;;;;;;5012763;28;20030;-73
2023/09/11 06:27:28;;;;;;;71.88;43.88;;;;;;;;;;5013943;28;20072;-72
2023/09/11 06:29:55;;;;;;;68.45;42.42;;;;;;;;;;5012246;28;20022;-72
2023/09/11 06:32:21;;;;;;;69.05;41.83;;;;;;;;;;5013711;28;20026;-73
2023/09/11 06:34:47;;;;;;;74.22;40.60;;;;;;;;;;5011678;28;20045;-72
2023/09/11 06:37:13;;;;;;;71.68;39.42;;;;;;;;;;5013192;28;20049;-72
2023/09/11 06:39:39;;;;;;;67.78;40.33;;;;;;;;;;5014073;28;20030;-72
2023/09/11 06:42:05;;;;;;;65.80;40.38;;;;;;;;;;5014815;28;20089;-71
2023/09/11 06:44:31;;;;;;;64.35;38.45;;;;;;;;;;5013533;28;20069;-72
2023/09/11 06:46:57;;;;;;;69.32;37.40;;;;;;;;;;5013457;28;20065;-73
2023/09/11 06:49:24;;;;;;;64.20;38.40;;;;;;;;;;5013545;28;20076;-73
2023/09/11 06:51:50;;;;;;;60.97;35.63;;;;;;;;;;5014148;28;20018;-73
2023/09/11 06:54:15;;;;;;;70.43;37.92;;;;;;;;;;5015877;28;20037;-75
2023/09/11 06:56:41;;;;;;;60.97;35.00;;;;;;;;;;5014495;28;20113;-77
2023/09/11 06:59:07;;;;;;;58.80;34.88;;;;;;;;;;5013208;28;20086;-73
2023/09/11 07:01:38;;;;;;;58.63;34.92;;;;;;;;;;5013074;28;20030;-77
2023/09/11 07:04:06;;;;;;;50.15;31.17;;;;;;;;;;5012577;28;20488;-75
2023/09/11 07:06:32;;;;;;;56.13;33.70;;;;;;;;;;5011738;28;20132;-73
2023/09/11 07:08:58;;;;;;;56.95;32.53;;;;;;;;;;5011740;28;20454;-74
2023/09/11 07:11:24;;;;;;;52.13;31.90;;;;;;;;;;5011882;28;20030;-74
2023/09/11 07:13:55;;;;;;;55.33;35.63;;;;;;;;;;5012138;28;20029;-73
2023/09/11 07:16:21;;;;;;;52.03;32.30;;;;;;;;;;5011975;28;20028;-73
2023/09/11 07:18:47;;;;;;;52.67;31.05;;;;;;;;;;5011983;28;20149;-73
2023/09/11 07:21:13;;;;;;;44.97;28.92;;;;;;;;;;5011798;28;20032;-76
2023/09/11 07:23:39;;;;;;;48.38;30.10;;;;;;;;;;5015164;28;20102;-76
2023/09/11 07:26:05;;;;;;;52.40;31.63;;;;;;;;;;5014803;28;20037;-74
2023/09/11 07:28:33;;;;;;;47.70;29.52;;;;;;;;;;5011911;28;20137;-74
2023/09/11 07:30:59;;;;;;;49.30;28.98;;;;;;;;;;5013271;28;20449;-73
2023/09/11 07:33:25;;;;;;;51.83;29.60;;;;;;;;;;5012611;28;20052;-73
2023/09/11 07:35:51;;;;;;;45.20;28.98;;;;;;;;;;5012012;28;20042;-73
2023/09/11 07:38:17;;;;;;;48.88;30.13;;;;;;;;;;5011899;28;20038;-73
2023/09/11 07:40:44;;;;;;;47.63;28.88;;;;;;;;;;5011668;28;20029;-74
2023/09/11 07:43:11;;;;;;;40.80;26.08;;;;;;;;;;5011551;28;20048;-74
2023/09/11 07:45:37;;;;;;;41.80;26.17;;;;;;;;;;5011929;28;20113;-74
2023/09/11 07:48:03;;;;;;;47.15;28.98;;;;;;;;;;5015055;28;20026;-73
2023/09/11 07:50:29;;;;;;;38.65;25.73;;;;;;;;;;5015668;28;20037;-72
2023/09/11 07:52:55;;;;;;;45.45;26.50;;;;;;;;;;5015641;28;20018;-73
2023/09/11 07:55:21;;;;;;;44.13;26.08;;;;;;;;;;5015518;28;20053;-73
2023/09/11 07:57:47;;;;;;;46.80;25.52;;;;;;;;;;5015837;28;20401;-74
2023/09/11 08:00:13;;;;;;;38.08;22.10;;;;;;;;;;5015840;28;20038;-73
2023/09/11 08:02:40;;;;;;;36.25;22.48;;;;;;;;;;5018145;28;20056;-73
2023/09/11 08:05:06;;;;;;;47.28;32.70;;;;;;;;;;5016826;28;20084;-74
2023/09/11 08:07:32;;;;;;;43.05;25.38;;;;;;;;;;5016271;28;20464;-73
2023/09/11 08:09:59;;;;;;;39.10;22.73;;;;;;;;;;5017570;28;20084;-73
2023/09/11 08:12:25;;;;;;;43.08;24.00;;;;;;;;;;5017346;28;20072;-73
2023/09/11 08:14:51;;;;;;;35.47;23.23;;;;;;;;;;5015490;28;20034;-73
2023/09/11 08:17:17;;;;;;;42.75;23.20;;;;;;;;;;5015777;28;20057;-72
2023/09/11 08:19:43;;;;;;;39.22;22.80;;;;;;;;;;5016537;28;20386;-74
2023/09/11 08:22:09;;;;;;;41.20;21.90;;;;;;;;;;5015793;28;20030;-74
2023/09/11 08:24:35;;;;;;;36.97;21.73;;;;;;;;;;5015253;28;20380;-73
2023/09/11 08:27:01;;;;;;;37.83;21.10;;;;;;;;;;5015398;28;20030;-73
2023/09/11 08:29:27;;;;;;;40.72;20.77;;;;;;;;;;5016452;28;20026;-72
2023/09/11 08:31:53;;;;;;;34.63;20.58;;;;;;;;;;5017192;28;20040;-73
2023/09/11 08:34:19;;;;;;;36.40;20.55;;;;;;;;;;5014430;28;20057;-73
2023/09/11 08:36:45;;;;;;;34.72;19.73;;;;;;;;;;5015004;28;20385;-72
2023/09/11 08:39:11;;;;;;;34.90;20.92;;;;;;;;;;5014496;28;20032;-72
2023/09/11 08:41:37;;;;;;;40.08;20.70;;;;;;;;;;5014398;28;20037;-74
2023/09/11 08:44:03;;;;;;;42.40;26.55;;;;;;;;;;5014627;28;20080;-74
2023/09/11 08:46:32;;;;;;;29.60;16.63;;;;;;;;;;5016266;28;20026;-73
2023/09/11 08:49:00;;;;;;;37.47;23.27;;;;;;;;;;5015570;28;20454;-73
2023/09/11 08:51:32;;;;;;;26.20;17.20;;;;;;;;;;5015263;28;20026;-73
2023/09/11 08:53:59;;;;;;;36.70;16.95;;;;;;;;;;5015480;28;20024;-73
2023/09/11 08:56:25;;;;;;;28.80;15.73;;;;;;;;;;5018516;28;20050;-72
2023/09/11 08:58:52;;;;;;;30.20;15.60;;;;;;;;;;5019244;28;20061;-73
2023/09/11 09:01:19;;;;;;;35.28;14.25;;;;;;;;;;5017475;28;20037;-74
2023/09/11 09:03:45;;;;;;;21.83;13.15;;;;;;;;;;5015854;28;20421;-74
2023/09/11 09:06:12;;;;;;;23.63;13.60;;;;;;;;;;5013526;28;20030;-73
2023/09/11 09:08:38;;;;;;;25.67;12.25;;;;;;;;;;5015465;28;20030;-75
2023/09/11 09:11:05;;;;;;;28.52;12.43;;;;;;;;;;5016906;28;20018;-74
2023/09/11 09:13:35;;;;;;;22.88;10.82;;;;;;;;;;5016329;28;20036;-74
2023/09/11 09:16:02;;;;;;;19.10;10.43;;;;;;;;;;5016880;28;20101;-73
2023/09/11 09:18:28;;;;;;;23.40;12.15;;;;;;;;;;5015250;28;20022;-74
2023/09/11 09:20:55;;;;;;;18.73;10.38;;;;;;;;;;5014211;28;20029;-76
2023/09/11 09:23:31;;;;;;;16.30;10.13;;;;;;;;;;5014917;28;20363;-79
2023/09/11 09:26:06;;;;;;;18.70;10.65;;;;;;;;;;5013975;28;20034;-73
2023/09/11 09:28:33;;;;;;;14.95;9.38;;;;;;;;;;5007289;28;20033;-75
2023/09/11 09:30:59;;;;;;;17.50;10.73;;;;;;;;;;5005008;28;20454;-74
2023/09/11 09:33:25;;;;;;;20.23;9.45;;;;;;;;;;5013090;28;20030;-75
2023/09/11 09:35:51;;;;;;;18.27;9.00;;;;;;;;;;5013405;28;20053;-73
2023/09/11 09:38:20;;;;;;;23.23;10.30;;;;;;;;;;5013023;28;20482;-74
2023/09/11 09:40:47;;;;;;;19.88;11.23;;;;;;;;;;5013450;28;20030;-75
2023/09/11 09:43:17;;;;;;;17.85;9.18;;;;;;;;;;5012816;28;20075;-73
2023/09/11 09:45:43;;;;;;;18.73;9.15;;;;;;;;;;5012919;28;20387;-75
2023/09/11 09:48:09;;;;;;;25.38;9.23;;;;;;;;;;5013005;28;20029;-72
2023/09/11 09:50:48;;;;;;;21.80;8.90;;;;;;;;;;5013314;28;20594;-72
2023/09/11 09:53:28;;;;;;;22.60;9.63;;;;;;;;;;5012941;28;20030;-74
2023/09/11 09:55:54;;;;;;;22.15;8.52;;;;;;;;;;5013551;28;20579;-73
2023/09/11 09:58:21;;;;;;;18.77;9.73;;;;;;;;;;5013026;28;20033;-74
2023/09/11 10:00:47;;;;;;;21.80;10.13;;;;;;;;;;5012985;28;20161;-74
2023/09/11 10:03:14;;;;;;;17.80;10.63;;;;;;;;;;5011384;28;20655;-74
2023/09/11 10:05:40;;;;;;;19.35;9.60;;;;;;;;;;5012270;28;20025;-75
2023/09/11 10:08:06;;;;;;;29.75;10.60;;;;;;;;;;5011545;28;20044;-74
2023/09/11 10:10:33;;;;;;;20.80;8.98;;;;;;;;;;5012955;28;20485;-74
2023/09/11 10:13:02;;;;;;;22.92;9.07;;;;;;;;;;5013484;28;20026;-74
2023/09/11 10:15:29;;;;;;;25.77;10.80;;;;;;;;;;5013411;28;20062;-73
2023/09/11 10:17:57;;;;;;;19.88;8.75;;;;;;;;;;5013020;28;20399;-74
2023/09/11 10:20:24;;;;;;;24.17;9.20;;;;;;;;;;5013162;28;20393;-73
2023/09/11 10:22:53;;;;;;;23.25;9.55;;;;;;;;;;5012726;28;20022;-73
2023/09/11 10:25:20;;;;;;;30.42;9.15;;;;;;;;;;5012970;28;20029;-73
2023/09/11 10:27:47;;;;;;;35.58;9.98;;;;;;;;;;5013300;28;20105;-75
2023/09/11 10:30:16;;;;;;;23.20;8.88;;;;;;;;;;5013067;28;20029;-74
2023/09/11 10:32:47;;;;;;;26.65;9.05;;;;;;;;;;5012655;28;20025;-73
2023/09/11 10:35:13;;;;;;;21.10;8.93;;;;;;;;;;5012691;28;20034;-74
2023/09/11 10:37:41;;;;;;;27.17;9.70;;;;;;;;;;5012628;28;20499;-74
2023/09/11 10:40:09;;;;;;;20.08;9.15;;;;;;;;;;5012785;28;20026;-74
2023/09/11 10:42:35;;;;;;;25.67;8.43;;;;;;;;;;5012369;28;20500;-74
2023/09/11 10:45:03;;;;;;;31.80;9.57;;;;;;;;;;5014130;28;20033;-74
2023/09/11 10:47:29;;;;;;;22.00;9.23;;;;;;;;;;5015475;28;20084;-71
2023/09/11 10:49:58;;;;;;;17.63;7.78;;;;;;;;;;5013805;28;20030;-74
2023/09/11 10:52:27;;;;;;;29.83;8.73;;;;;;;;;;5013944;28;20034;-73
2023/09/11 10:54:53;;;;;;;28.10;8.20;;;;;;;;;;5014079;28;20033;-73
2023/09/11 10:57:19;;;;;;;25.45;8.52;;;;;;;;;;5013299;28;20493;-73
2023/09/11 10:59:45;;;;;;;18.00;8.35;;;;;;;;;;5012341;28;20109;-73
2023/09/11 11:02:11;;;;;;;19.90;7.43;;;;;;;;;;5012455;28;20584;-74
2023/09/11 11:04:37;;;;;;;22.52;7.93;;;;;;;;;;5011896;28;20034;-75
2023/09/11 11:07:03;;;;;;;26.25;7.68;;;;;;;;;;5012916;28;20050;-73
2023/09/11 11:09:30;;;;;;;23.75;7.18;;;;;;;;;;5013440;28;20025;-75
2023/09/11 11:11:57;;;;;;;22.90;7.97;;;;;;;;;;5012574;28;20022;-75
2023/09/11 11:14:23;;;;;;;21.15;7.15;;;;;;;;;;5013077;28;20034;-74
2023/09/11 11:17:04;;;;;;;30.58;7.30;;;;;;;;;;5012861;28;20405;-73
2023/09/11 11:19:34;;;;;;;20.63;7.57;;;;;;;;;;5011817;28;20056;-73
2023/09/11 11:22:06;;;;;;;25.25;7.43;;;;;;;;;;5010875;28;20205;-78
2023/09/11 11:24:36;;;;;;;17.92;7.28;;;;;;;;;;5011225;28;20366;-74
2023/09/11 11:27:03;;;;;;;25.92;6.82;;;;;;;;;;5012281;28;20056;-74
2023/09/11 11:29:29;;;;;;;18.90;7.05;;;;;;;;;;5012556;28;20045;-72
2023/09/11 11:31:57;;;;;;;17.98;6.50;;;;;;;;;;5011765;28;20568;-74
2023/09/11 11:34:25;;;;;;;22.67;6.43;;;;;;;;;;5011468;28;20139;-78
2023/09/11 11:36:54;;;;;;;31.60;7.68;;;;;;;;;;5013563;28;20022;-75
2023/09/11 11:39:21;;;;;;;21.70;6.70;;;;;;;;;;5012803;28;20389;-73
2023/09/11 11:41:48;;;;;;;17.10;6.20;;;;;;;;;;5013579;28;20117;-74
2023/09/11 11:44:14;;;;;;;32.97;6.75;;;;;;;;;;5013615;28;20405;-74
2023/09/11 11:46:40;;;;;;;34.53;6.68;;;;;;;;;;5016434;28;20457;-74
2023/09/11 11:49:06;;;;;;;18.60;6.38;;;;;;;;;;5019058;28;20037;-75
2023/09/11 11:51:33;;;;;;;22.85;6.55;;;;;;;;;;5027282;28;20026;-74
2023/09/11 11:53:59;;;;;;;26.95;6.00;;;;;;;;;;5032397;28;20034;-73
2023/09/11 11:56:26;;;;;;;23.08;6.65;;;;;;;;;;5028142;28;20090;-75
2023/09/11 11:58:56;;;;;;;29.85;6.10;;;;;;;;;;5030492;28;20065;-75
2023/09/11 12:01:22;;;;;;;26.88;6.65;;;;;;;;;;5037512;28;20419;-76
2023/09/11 12:03:49;;;;;;;27.27;6.32;;;;;;;;;;5034701;28;20025;-75
2023/09/11 12:06:15;;;;;;;19.92;5.95;;;;;;;;;;5036918;28;20087;-73
2023/09/11 12:08:41;;;;;;;18.52;6.22;;;;;;;;;;5038603;28;20040;-74
2023/09/11 12:11:08;;;;;;;15.40;5.95;;;;;;;;;;5035073;28;20037;-74
2023/09/11 12:13:34;;;;;;;16.75;6.38;;;;;;;;;;5031881;28;20075;-75
2023/09/11 12:16:01;;;;;;;17.88;5.65;;;;;;;;;;5030993;28;20161;-74
2023/09/11 12:18:28;;;;;;;15.55;6.10;;;;;;;;;;5031126;28;20037;-74
2023/09/11 12:20:59;;;;;;;16.67;5.72;;;;;;;;;;5031316;28;20033;-82
2023/09/11 12:23:25;;;;;;;20.05;5.60;;;;;;;;;;5034372;28;20053;-73
2023/09/11 12:25:51;;;;;;;20.70;6.65;;;;;;;;;;5033840;28;20029;-75
2023/09/11 12:28:18;;;;;;;20.00;6.68;;;;;;;;;;5032412;28;20128;-75
2023/09/11 12:30:45;;;;;;;32.53;6.28;;;;;;;;;;5036620;28;20029;-77
2023/09/11 12:33:14;;;;;;;17.95;6.72;;;;;;;;;;5033591;28;20022;-75
2023/09/11 12:35:41;;;;;;;27.40;6.78;;;;;;;;;;5034643;28;20029;-75
2023/09/11 12:38:11;;;;;;;24.27;6.53;;;;;;;;;;5035136;28;20502;-74
2023/09/11 12:40:37;;;;;;;11.70;6.13;;;;;;;;;;5036100;28;20021;-74
2023/09/11 12:43:04;;;;;;;18.85;6.45;;;;;;;;;;5035583;28;20040;-75
2023/09/11 12:45:30;;;;;;;19.52;5.95;;;;;;;;;;5035221;28;20502;-75
2023/09/11 12:47:56;;;;;;;22.77;6.22;;;;;;;;;;5034748;28;20057;-75
2023/09/11 12:50:22;;;;;;;19.00;5.93;;;;;;;;;;5035624;28;20044;-76
2023/09/11 12:52:48;;;;;;;25.98;6.38;;;;;;;;;;5037191;28;20083;-74
2023/09/11 12:55:14;;;;;;;18.52;5.35;;;;;;;;;;5035191;28;20036;-74
2023/09/11 12:57:41;;;;;;;19.85;5.50;;;;;;;;;;5034978;28;20035;-75
2023/09/11 13:00:09;;;;;;;16.13;5.60;;;;;;;;;;5034579;28;20076;-74
2023/09/11 13:02:35;;;;;;;34.92;6.43;;;;;;;;;;5034689;28;20497;-74
2023/09/11 13:05:01;;;;;;;24.23;5.95;;;;;;;;;;5034188;28;20036;-75
2023/09/11 13:07:27;;;;;;;18.15;6.18;;;;;;;;;;5034245;28;20108;-74
2023/09/11 13:09:53;;;;;;;15.23;6.32;;;;;;;;;;5034602;28;20029;-74
2023/09/11 13:12:19;;;;;;;27.67;6.40;;;;;;;;;;5034019;28;20029;-75
2023/09/11 13:14:48;;;;;;;21.45;5.53;;;;;;;;;;5033994;28;20037;-75
2023/09/11 13:17:14;;;;;;;20.63;5.75;;;;;;;;;;5034107;28;20018;-73
2023/09/11 13:19:40;;;;;;;15.63;6.03;;;;;;;;;;5033760;28;20030;-75
2023/09/11 13:22:06;;;;;;;26.15;6.55;;;;;;;;;;5034497;28;20022;-76
2023/09/11 13:24:32;;;;;;;18.92;5.53;;;;;;;;;;5034273;28;20025;-75
2023/09/11 13:26:58;;;;;;;17.75;5.13;;;;;;;;;;5034447;28;20508;-74
2023/09/11 13:29:24;;;;;;;23.10;5.80;;;;;;;;;;5034118;28;20040;-74
2023/09/11 13:31:50;;;;;;;25.42;6.03;;;;;;;;;;5034202;28;20029;-73
2023/09/11 13:34:16;;;;;;;22.27;5.10;;;;;;;;;;5033823;28;20033;-77
2023/09/11 13:36:42;;;;;;;30.70;5.88;;;;;;;;;;5035053;28;20029;-77
2023/09/11 13:39:08;;;;;;;15.02;5.57;;;;;;;;;;5014853;28;20028;-75
2023/09/11 13:41:35;;;;;;;24.73;5.78;;;;;;;;;;5012957;28;20063;-74
2023/09/11 13:44:02;;;;;;;19.35;5.90;;;;;;;;;;5011593;28;20418;-74
2023/09/11 13:46:28;;;;;;;20.70;5.40;;;;;;;;;;5010609;28;20030;-75
2023/09/11 13:48:54;;;;;;;18.52;5.28;;;;;;;;;;5012998;28;20363;-75
2023/09/11 13:51:20;;;;;;;30.02;7.15;;;;;;;;;;5012585;28;20083;-75
2023/09/11 13:53:46;;;;;;;20.23;6.15;;;;;;;;;;5012328;28;20022;-76
2023/09/11 13:56:12;;;;;;;29.25;5.70;;;;;;;;;;5012573;28;20506;-74
2023/09/11 13:58:38;;;;;;;14.32;5.72;;;;;;;;;;5012395;28;20030;-75
2023/09/11 14:01:04;;;;;;;28.90;5.97;;;;;;;;;;5012163;28;20022;-75
2023/09/11 14:03:30;;;;;;;21.25;6.05;;;;;;;;;;5011781;28;20360;-75
2023/09/11 14:05:56;;;;;;;19.90;5.18;;;;;;;;;;5011324;28;20474;-76
2023/09/11 14:08:22;;;;;;;27.38;5.72;;;;;;;;;;5012316;28;20028;-75
2023/09/11 14:10:48;;;;;;;25.67;5.72;;;;;;;;;;5012137;28;20046;-77
2023/09/11 14:13:14;;;;;;;23.15;5.72;;;;;;;;;;5012102;28;20029;-74
2023/09/11 14:15:40;;;;;;;22.13;5.30;;;;;;;;;;5011860;28;20026;-75
2023/09/11 14:18:06;;;;;;;27.30;5.60;;;;;;;;;;5011287;28;20026;-75